createdAt,value
2023-04-09T00:00:43.633Z,75.44
2023-04-09T00:03:10.885Z,75.50
2023-04-09T00:05:41.133Z,76.14
2023-04-09T00:08:08.102Z,76.10
2023-04-09T00:10:35.392Z,76.32
2023-04-09T00:13:02.282Z,75.98
2023-04-09T00:15:31.561Z,75.91
2023-04-09T00:17:59.672Z,76.16
2023-04-09T00:20:26.754Z,76.27
2023-04-09T00:22:54.234Z,76.84
2023-04-09T00:25:21.143Z,76.80
2023-04-09T00:27:48.025Z,76.36
2023-04-09T00:30:15.087Z,75.72
2023-04-09T00:32:42.242Z,75.96
2023-04-09T00:35:09.534Z,76.21
2023-04-09T00:37:36.474Z,75.65
2023-04-09T00:40:03.947Z,75.72
2023-04-09T00:42:34.843Z,75.50
2023-04-09T00:45:02.140Z,75.68
2023-04-09T00:47:31.039Z,75.51
2023-04-09T00:49:58.129Z,75.42
2023-04-09T00:52:25.384Z,75.49
2023-04-09T00:54:52.571Z,75.47
2023-04-09T00:57:19.792Z,75.58
2023-04-09T00:59:46.784Z,75.48
2023-04-09T01:02:13.931Z,75.48
2023-04-09T01:04:41.776Z,75.33
2023-04-09T01:07:23.779Z,75.33
2023-04-09T01:10:06.079Z,75.67
2023-04-09T01:12:56.561Z,75.35
2023-04-09T01:15:26.978Z,75.65
2023-04-09T01:18:02.104Z,75.58
2023-04-09T01:20:57.548Z,75.87
2023-04-09T01:23:58.231Z,76.13
2023-04-09T01:27:04.189Z,76.40
2023-04-09T01:29:51.966Z,76.47
2023-04-09T01:32:19.076Z,76.39
2023-04-09T01:34:46.551Z,76.30
2023-04-09T01:37:13.468Z,76.41
2023-04-09T01:39:40.613Z,76.52
2023-04-09T01:42:11.233Z,76.79
2023-04-09T01:44:41.603Z,76.62
2023-04-09T01:47:08.962Z,77.05
2023-04-09T01:49:36.155Z,77.35
2023-04-09T01:52:03.206Z,77.31
2023-04-09T01:54:30.322Z,76.81
2023-04-09T01:56:57.781Z,77.27
2023-04-09T01:59:24.838Z,77.55
2023-04-09T02:02:03.052Z,77.71
2023-04-09T02:04:39.349Z,77.81
2023-04-09T02:07:30.983Z,77.44
2023-04-09T02:09:58.497Z,77.54
2023-04-09T02:12:25.445Z,77.44
2023-04-09T02:14:52.595Z,77.66
2023-04-09T02:17:19.621Z,77.93
2023-04-09T02:19:47.356Z,78.45
2023-04-09T02:22:15.175Z,78.31
2023-04-09T02:24:42.219Z,78.39
2023-04-09T02:27:09.249Z,78.78
2023-04-09T02:29:38.350Z,78.47
2023-04-09T02:32:05.475Z,78.89
2023-04-09T02:34:32.501Z,79.15
2023-04-09T02:36:59.647Z,79.26
2023-04-09T02:39:27.417Z,79.63
2023-04-09T02:41:54.370Z,79.56
2023-04-09T02:44:21.300Z,79.33
2023-04-09T02:46:49.528Z,80.08
2023-04-09T02:49:16.812Z,79.78
2023-04-09T02:51:43.771Z,79.92
2023-04-09T02:54:10.856Z,79.86
2023-04-09T02:56:37.862Z,80.30
2023-04-09T02:59:04.874Z,80.01
2023-04-09T03:01:31.981Z,80.32
2023-04-09T03:04:00.152Z,80.06
2023-04-09T03:06:27.180Z,80.33
2023-04-09T03:08:54.134Z,80.32
2023-04-09T03:11:21.132Z,80.60
2023-04-09T03:13:48.149Z,80.64
2023-04-09T03:16:15.123Z,80.39
2023-04-09T03:18:42.165Z,80.37
2023-04-09T03:21:09.340Z,80.21
2023-04-09T03:23:39.554Z,80.05
2023-04-09T03:26:07.846Z,80.38
2023-04-09T03:28:42.575Z,80.44
2023-04-09T03:31:09.703Z,80.45
2023-04-09T03:33:38.957Z,80.42
2023-04-09T03:36:06.638Z,80.30
2023-04-09T03:38:54.605Z,80.41
2023-04-09T03:41:43.648Z,80.23
2023-04-09T03:44:14.419Z,80.08
2023-04-09T03:47:13.662Z,80.41
2023-04-09T03:49:40.781Z,80.61
2023-04-09T03:52:16.619Z,80.23
2023-04-09T03:54:46.846Z,79.98
2023-04-09T03:57:18.726Z,80.27
2023-04-09T03:59:48.954Z,80.19
2023-04-09T04:02:19.318Z,80.40
2023-04-09T04:04:54.591Z,80.29
2023-04-09T04:07:23.404Z,80.30
2023-04-09T04:09:58.068Z,80.07
2023-04-09T04:12:25.086Z,79.94
2023-04-09T04:15:03.142Z,79.46
2023-04-09T04:17:38.242Z,79.48
2023-04-09T04:20:12.777Z,78.92
2023-04-09T04:22:52.400Z,78.82
2023-04-09T04:25:20.674Z,78.52
2023-04-09T04:27:48.148Z,78.26
2023-04-09T04:30:17.662Z,77.91
2023-04-09T04:32:56.117Z,77.66
2023-04-09T04:35:23.530Z,77.39
2023-04-09T04:37:54.175Z,77.07
2023-04-09T04:40:22.093Z,76.84
2023-04-09T04:42:55.770Z,76.63
2023-04-09T04:45:22.772Z,76.03
2023-04-09T04:47:57.709Z,75.53
2023-04-09T04:50:24.741Z,75.18
2023-04-09T04:52:57.348Z,74.49
2023-04-09T04:55:28.202Z,73.71
2023-04-09T04:57:55.865Z,73.20
2023-04-09T05:00:26.139Z,72.83
2023-04-09T05:02:53.569Z,71.86
2023-04-09T05:05:41.217Z,71.30
2023-04-09T05:08:08.830Z,70.67
2023-04-09T05:10:35.981Z,70.18
2023-04-09T05:13:03.063Z,69.27
2023-04-09T05:15:40.871Z,68.67
2023-04-09T05:18:08.925Z,67.89
2023-04-09T05:20:36.647Z,67.05
2023-04-09T05:23:10.281Z,66.33
2023-04-09T05:25:41.595Z,65.93
2023-04-09T05:28:16.813Z,64.87
2023-04-09T05:30:48.061Z,63.97
2023-04-09T05:33:16.436Z,63.84
2023-04-09T05:35:43.721Z,62.89
2023-04-09T05:38:11.174Z,62.53
2023-04-09T05:40:38.710Z,61.40
2023-04-09T05:43:11.329Z,60.82
2023-04-09T05:45:41.395Z,59.54
2023-04-09T05:48:08.694Z,59.34
2023-04-09T05:50:47.168Z,59.13
2023-04-09T05:53:21.749Z,58.19
2023-04-09T05:55:51.485Z,57.35
2023-04-09T05:58:22.168Z,56.57
2023-04-09T06:00:51.675Z,56.74
2023-04-09T06:03:19.824Z,55.95
2023-04-09T06:05:48.346Z,55.26
2023-04-09T06:08:15.424Z,54.63
2023-04-09T06:10:42.316Z,54.51
2023-04-09T06:13:10.243Z,53.58
2023-04-09T06:15:38.885Z,52.63
2023-04-09T06:18:05.959Z,52.68
2023-04-09T06:20:33.032Z,52.58
2023-04-09T06:22:59.969Z,51.64
2023-04-09T06:25:27.050Z,51.83
2023-04-09T06:27:53.961Z,51.39
2023-04-09T06:30:20.934Z,50.87
2023-04-09T06:32:54.653Z,50.74
2023-04-09T06:35:22.174Z,49.71
2023-04-09T06:37:49.153Z,49.19
2023-04-09T06:40:16.245Z,49.31
2023-04-09T06:42:43.165Z,48.81
2023-04-09T06:45:17.885Z,48.04
2023-04-09T06:47:44.934Z,47.65
2023-04-09T06:50:11.844Z,46.62
2023-04-09T06:52:38.830Z,45.81
2023-04-09T06:55:06.339Z,45.69
2023-04-09T06:57:33.348Z,45.52
2023-04-09T07:00:00.344Z,43.96
2023-04-09T07:02:28.047Z,43.66
2023-04-09T07:04:55.247Z,43.50
2023-04-09T07:07:24.299Z,42.87
2023-04-09T07:09:53.080Z,42.55
2023-04-09T07:12:32.702Z,40.96
2023-04-09T07:15:03.649Z,40.50
2023-04-09T07:17:31.368Z,40.49
2023-04-09T07:19:58.339Z,40.20
2023-04-09T07:22:26.802Z,40.00
2023-04-09T07:24:54.974Z,39.42
2023-04-09T07:27:26.012Z,38.97
2023-04-09T07:29:57.860Z,38.40
2023-04-09T07:32:25.569Z,38.13
2023-04-09T07:34:53.044Z,38.09
2023-04-09T07:37:20.819Z,37.90
2023-04-09T07:39:48.297Z,37.39
2023-04-09T07:42:15.450Z,37.32
2023-04-09T07:44:42.461Z,36.77
2023-04-09T07:47:09.512Z,37.17
2023-04-09T07:49:37.494Z,36.85
2023-04-09T07:52:04.832Z,37.36
2023-04-09T07:54:31.931Z,36.98
2023-04-09T07:56:59.434Z,37.02
2023-04-09T07:59:27.643Z,36.44
2023-04-09T08:01:54.684Z,36.57
2023-04-09T08:04:22.171Z,36.10
2023-04-09T08:06:51.515Z,35.75
2023-04-09T08:09:18.626Z,35.75
2023-04-09T08:11:46.227Z,35.39
2023-04-09T08:14:13.938Z,35.61
2023-04-09T08:16:42.350Z,35.62
2023-04-09T08:19:09.677Z,35.56
2023-04-09T08:21:43.060Z,35.41
2023-04-09T08:24:13.203Z,34.98
2023-04-09T08:26:40.629Z,35.70
2023-04-09T08:29:08.209Z,34.86
2023-04-09T08:31:36.651Z,35.39
2023-04-09T08:34:03.933Z,35.20
2023-04-09T08:36:31.837Z,35.81
2023-04-09T08:39:00.693Z,35.70
2023-04-09T08:41:30.921Z,34.48
2023-04-09T08:43:59.260Z,34.68
2023-04-09T08:46:27.319Z,34.38
2023-04-09T08:48:54.761Z,34.29
2023-04-09T08:51:23.079Z,34.40
2023-04-09T08:54:03.254Z,34.06
2023-04-09T08:56:31.133Z,34.20
2023-04-09T08:58:58.830Z,34.86
2023-04-09T09:01:27.480Z,35.09
2023-04-09T09:04:03.909Z,34.69
2023-04-09T09:06:41.185Z,34.44
2023-04-09T09:09:09.470Z,34.53
2023-04-09T09:11:37.769Z,34.03
2023-04-09T09:14:06.295Z,33.40
2023-04-09T09:16:34.997Z,32.94
2023-04-09T09:19:02.770Z,33.09
2023-04-09T09:21:30.260Z,33.16
2023-04-09T09:23:57.446Z,33.56
2023-04-09T09:26:25.955Z,33.37
2023-04-09T09:28:53.074Z,33.87
2023-04-09T09:31:21.230Z,34.01
2023-04-09T09:33:48.460Z,33.51
2023-04-09T09:36:34.642Z,34.17
2023-04-09T09:39:04.161Z,33.83
2023-04-09T09:41:31.352Z,33.43
2023-04-09T09:43:58.436Z,34.62
2023-04-09T09:46:26.480Z,34.24
2023-04-09T09:48:53.804Z,33.76
2023-04-09T09:51:22.810Z,33.69
2023-04-09T09:53:49.997Z,33.86
2023-04-09T09:56:27.119Z,33.54
2023-04-09T09:59:24.776Z,33.39
2023-04-09T10:02:01.419Z,32.78
2023-04-09T10:04:29.520Z,33.08
2023-04-09T10:06:56.813Z,32.83
2023-04-09T10:09:24.220Z,33.09
2023-04-09T10:11:51.303Z,32.57
2023-04-09T10:14:18.282Z,32.46
2023-04-09T10:16:45.531Z,32.31
2023-04-09T10:19:15.689Z,31.91
2023-04-09T10:21:53.497Z,32.20
2023-04-09T10:24:20.758Z,32.78
2023-04-09T10:26:47.777Z,33.04
2023-04-09T10:29:15.997Z,31.83
2023-04-09T10:32:03.542Z,31.55
2023-04-09T10:34:30.588Z,31.89
2023-04-09T10:36:58.076Z,31.17
2023-04-09T10:39:29.900Z,30.99
2023-04-09T10:41:59.609Z,30.99
2023-04-09T10:44:27.641Z,30.83
2023-04-09T10:46:55.188Z,31.03
2023-04-09T10:49:23.586Z,32.74
2023-04-09T10:52:12.635Z,32.08
2023-04-09T10:54:43.771Z,31.16
2023-04-09T10:57:11.476Z,31.69
2023-04-09T10:59:42.621Z,31.16
2023-04-09T11:02:13.807Z,31.13
2023-04-09T11:04:52.595Z,30.68
2023-04-09T11:07:19.520Z,30.59
2023-04-09T11:09:47.801Z,30.43
2023-04-09T11:12:14.726Z,30.81
2023-04-09T11:14:41.592Z,30.34
2023-04-09T11:17:08.579Z,30.27
2023-04-09T11:19:35.738Z,30.36
2023-04-09T11:22:06.988Z,30.50
2023-04-09T11:24:41.601Z,30.67
2023-04-09T11:27:08.910Z,30.61
2023-04-09T11:29:36.252Z,30.60
2023-04-09T11:32:05.324Z,30.50
2023-04-09T11:34:32.524Z,29.89
2023-04-09T11:36:59.941Z,30.64
2023-04-09T11:39:26.914Z,30.54
2023-04-09T11:41:53.871Z,31.12
2023-04-09T11:44:21.788Z,32.46
2023-04-09T11:46:49.244Z,33.10
2023-04-09T11:49:16.642Z,32.37
2023-04-09T11:51:43.740Z,31.50
2023-04-09T11:54:11.220Z,30.89
2023-04-09T11:56:38.212Z,30.58
2023-04-09T11:59:05.175Z,31.21
2023-04-09T12:01:33.081Z,30.85
2023-04-09T12:04:00.720Z,31.09
2023-04-09T12:06:28.658Z,31.16
2023-04-09T12:08:59.068Z,31.27
2023-04-09T12:11:30.024Z,31.17
2023-04-09T12:14:03.652Z,31.79
2023-04-09T12:16:34.614Z,31.81
2023-04-09T12:19:11.727Z,31.20
2023-04-09T12:21:58.627Z,31.29
2023-04-09T12:24:26.070Z,31.15
2023-04-09T12:26:53.138Z,30.86
2023-04-09T12:29:20.684Z,30.68
2023-04-09T12:31:47.795Z,30.52
2023-04-09T12:34:14.754Z,31.84
2023-04-09T12:36:41.792Z,32.49
2023-04-09T12:39:11.694Z,31.93
2023-04-09T12:41:38.632Z,32.45
2023-04-09T12:44:07.392Z,32.12
2023-04-09T12:46:34.326Z,31.66
2023-04-09T12:49:01.297Z,31.27
2023-04-09T12:51:28.671Z,31.50
2023-04-09T12:53:55.782Z,31.70
2023-04-09T12:56:22.915Z,31.68
2023-04-09T12:58:49.756Z,31.78
2023-04-09T13:01:17.138Z,32.02
2023-04-09T13:03:44.498Z,32.01
2023-04-09T13:06:11.692Z,31.77
2023-04-09T13:08:38.611Z,31.51
2023-04-09T13:11:06.027Z,31.69
2023-04-09T13:13:33.588Z,31.42
2023-04-09T13:16:00.579Z,32.74
2023-04-09T13:18:27.618Z,32.64
2023-04-09T13:20:54.553Z,32.32
2023-04-09T13:23:21.480Z,32.33
2023-04-09T13:25:48.378Z,32.07
2023-04-09T13:28:15.337Z,31.84
2023-04-09T13:30:42.268Z,32.02
2023-04-09T13:33:09.389Z,31.92
2023-04-09T13:35:36.493Z,31.95
2023-04-09T13:38:03.527Z,32.25
2023-04-09T13:40:30.545Z,32.53
2023-04-09T13:42:57.771Z,32.91
2023-04-09T13:45:24.690Z,32.79
2023-04-09T13:47:51.694Z,33.09
2023-04-09T13:50:18.817Z,33.55
2023-04-09T13:52:45.706Z,34.21
2023-04-09T13:55:12.647Z,33.85
2023-04-09T13:57:40.051Z,34.25
2023-04-09T14:00:08.285Z,34.23
2023-04-09T14:02:35.420Z,34.02
2023-04-09T14:05:04.099Z,34.06
2023-04-09T14:07:31.096Z,34.20
2023-04-09T14:09:58.228Z,34.26
2023-04-09T14:12:25.339Z,34.35
2023-04-09T14:14:52.397Z,34.56
2023-04-09T14:17:19.341Z,34.54
2023-04-09T14:19:46.362Z,34.37
2023-04-09T14:22:13.508Z,34.62
2023-04-09T14:24:40.514Z,34.61
2023-04-09T14:27:08.252Z,34.90
2023-04-09T14:29:35.377Z,35.03
2023-04-09T14:32:02.414Z,35.31
2023-04-09T14:34:30.286Z,35.13
2023-04-09T14:36:57.263Z,35.33
2023-04-09T14:39:24.283Z,35.52
2023-04-09T14:41:51.334Z,35.51
2023-04-09T14:44:18.247Z,36.09
2023-04-09T14:46:45.438Z,35.90
2023-04-09T14:49:12.554Z,35.93
2023-04-09T14:51:39.501Z,36.26
2023-04-09T14:54:06.803Z,36.13
2023-04-09T14:56:33.767Z,36.62
2023-04-09T14:59:00.762Z,36.90
2023-04-09T15:01:28.255Z,36.78
2023-04-09T15:03:55.722Z,37.44
2023-04-09T15:06:23.070Z,37.22
2023-04-09T15:08:50.014Z,37.27
2023-04-09T15:11:17.508Z,37.31
2023-04-09T15:13:44.628Z,37.63
2023-04-09T15:16:11.971Z,37.86
2023-04-09T15:18:38.951Z,37.86
2023-04-09T15:21:06.070Z,38.43
2023-04-09T15:23:35.612Z,38.39
2023-04-09T15:26:02.546Z,38.52
2023-04-09T15:28:29.493Z,38.47
2023-04-09T15:30:56.445Z,38.77
2023-04-09T15:33:23.509Z,39.15
2023-04-09T15:35:50.879Z,39.48
2023-04-09T15:38:17.918Z,39.48
2023-04-09T15:40:44.846Z,39.97
2023-04-09T15:43:11.759Z,39.95
2023-04-09T15:45:38.722Z,39.95
2023-04-09T15:48:06.132Z,40.31
2023-04-09T15:50:33.256Z,41.08
2023-04-09T15:53:00.498Z,40.99
2023-04-09T15:55:27.576Z,41.41
2023-04-09T15:57:55.197Z,41.62
2023-04-09T16:00:24.244Z,41.85
2023-04-09T16:02:53.044Z,42.19
2023-04-09T16:05:20.041Z,42.58
2023-04-09T16:07:47.013Z,42.82
2023-04-09T16:10:14.738Z,43.11
2023-04-09T16:12:41.903Z,42.97
2023-04-09T16:15:09.533Z,43.00
2023-04-09T16:17:40.992Z,43.86
2023-04-09T16:20:08.628Z,43.69
2023-04-09T16:22:35.863Z,43.63
2023-04-09T16:25:02.988Z,43.81
2023-04-09T16:27:29.989Z,44.11
2023-04-09T16:29:57.004Z,45.10
2023-04-09T16:32:24.067Z,44.62
2023-04-09T16:34:51.908Z,44.75
2023-04-09T16:37:18.816Z,44.64
2023-04-09T16:39:45.902Z,44.45
2023-04-09T16:42:13.067Z,44.74
2023-04-09T16:44:40.298Z,44.96
2023-04-09T16:47:08.324Z,44.81
2023-04-09T16:49:35.441Z,45.36
2023-04-09T16:52:02.460Z,45.94
2023-04-09T16:54:29.369Z,45.64
2023-04-09T16:56:58.601Z,45.48
2023-04-09T16:59:25.637Z,46.20
2023-04-09T17:01:52.859Z,46.75
2023-04-09T17:04:19.998Z,46.96
2023-04-09T17:06:47.276Z,46.99
2023-04-09T17:09:14.242Z,46.97
2023-04-09T17:11:42.368Z,47.84
2023-04-09T17:14:09.256Z,48.68
2023-04-09T17:16:38.204Z,48.50
2023-04-09T17:19:05.222Z,47.85
2023-04-09T17:21:32.270Z,47.43
2023-04-09T17:23:59.840Z,47.65
2023-04-09T17:26:26.917Z,48.20
2023-04-09T17:28:54.135Z,48.29
2023-04-09T17:31:24.237Z,48.35
2023-04-09T17:33:51.911Z,48.47
2023-04-09T17:36:20.022Z,48.32
2023-04-09T17:38:47.835Z,49.07
2023-04-09T17:41:14.735Z,49.01
2023-04-09T17:43:41.863Z,48.24
2023-04-09T17:46:09.155Z,47.94
2023-04-09T17:48:36.759Z,48.10
2023-04-09T17:51:04.326Z,47.58
2023-04-09T17:53:31.367Z,48.01
2023-04-09T17:55:58.442Z,48.00
2023-04-09T17:58:26.098Z,47.88
2023-04-09T18:00:53.940Z,47.59
2023-04-09T18:03:21.298Z,48.15
2023-04-09T18:05:48.737Z,48.16
2023-04-09T18:08:15.843Z,48.17
2023-04-09T18:10:42.790Z,47.99
2023-04-09T18:13:09.791Z,48.55
2023-04-09T18:15:37.253Z,49.34
2023-04-09T18:18:04.331Z,49.49
2023-04-09T18:20:31.448Z,48.89
2023-04-09T18:22:58.376Z,49.80
2023-04-09T18:25:25.591Z,50.34
2023-04-09T18:27:52.615Z,51.12
2023-04-09T18:30:19.645Z,51.83
2023-04-09T18:32:48.340Z,52.55
2023-04-09T18:35:15.702Z,53.54
2023-04-09T18:37:42.639Z,55.30
2023-04-09T18:40:12.330Z,56.45
2023-04-09T18:42:39.363Z,57.25
2023-04-09T18:45:06.564Z,57.51
2023-04-09T18:47:33.602Z,57.95
2023-04-09T18:50:00.684Z,57.63
2023-04-09T18:52:27.624Z,57.99
2023-04-09T18:54:54.825Z,58.96
2023-04-09T18:57:22.259Z,59.61
2023-04-09T18:59:49.175Z,60.53
2023-04-09T19:02:16.205Z,61.19
2023-04-09T19:04:43.595Z,62.36
2023-04-09T19:07:10.717Z,62.92
2023-04-09T19:09:38.627Z,62.87
2023-04-09T19:12:05.860Z,63.52
2023-04-09T19:14:32.801Z,64.16
2023-04-09T19:16:59.914Z,64.12
2023-04-09T19:19:29.072Z,63.04
2023-04-09T19:21:56.182Z,62.89
2023-04-09T19:24:25.959Z,62.89
2023-04-09T19:26:53.410Z,63.86
2023-04-09T19:29:20.862Z,63.59
2023-04-09T19:31:47.949Z,63.28
2023-04-09T19:34:15.754Z,64.11
2023-04-09T19:36:42.925Z,64.54
2023-04-09T19:39:11.095Z,63.93
2023-04-09T19:41:38.191Z,64.38
2023-04-09T19:44:07.384Z,64.86
2023-04-09T19:46:34.626Z,65.09
2023-04-09T19:49:01.734Z,65.52
2023-04-09T19:51:28.903Z,65.65
2023-04-09T19:53:56.466Z,65.17
2023-04-09T19:56:23.438Z,64.93
2023-04-09T19:58:50.410Z,65.47
2023-04-09T20:01:17.445Z,65.73
2023-04-09T20:03:44.698Z,66.18
2023-04-09T20:06:11.922Z,66.14
2023-04-09T20:08:39.162Z,66.98
2023-04-09T20:11:06.906Z,67.24
2023-04-09T20:13:34.225Z,67.50
2023-04-09T20:16:01.653Z,67.50
2023-04-09T20:18:28.876Z,67.69
2023-04-09T20:20:56.012Z,67.63
2023-04-09T20:23:22.945Z,67.01
2023-04-09T20:25:56.036Z,67.23
2023-04-09T20:28:23.214Z,67.49
2023-04-09T20:30:50.657Z,67.28
2023-04-09T20:33:18.088Z,67.65
2023-04-09T20:35:45.140Z,67.95
2023-04-09T20:38:12.032Z,68.09
2023-04-09T20:40:39.059Z,68.48
2023-04-09T20:43:06.543Z,68.50
2023-04-09T20:45:33.533Z,68.70
2023-04-09T20:48:01.262Z,68.96
2023-04-09T20:50:28.991Z,69.08
2023-04-09T20:52:56.151Z,69.14
2023-04-09T20:55:23.747Z,69.56
2023-04-09T20:57:50.683Z,68.96
2023-04-09T21:00:18.755Z,68.99
2023-04-09T21:02:45.957Z,69.62
2023-04-09T21:05:22.489Z,69.37
2023-04-09T21:07:51.902Z,68.74
2023-04-09T21:10:18.923Z,68.53
2023-04-09T21:12:46.053Z,68.42
2023-04-09T21:15:13.003Z,67.95
2023-04-09T21:17:40.124Z,68.85
2023-04-09T21:20:08.737Z,69.55
2023-04-09T21:22:36.075Z,69.94
2023-04-09T21:25:03.498Z,70.81
2023-04-09T21:27:31.266Z,70.56
2023-04-09T21:29:58.208Z,70.63
2023-04-09T21:32:25.422Z,71.22
2023-04-09T21:34:53.347Z,71.57
2023-04-09T21:37:20.272Z,72.15
2023-04-09T21:39:48.862Z,72.34
2023-04-09T21:42:16.029Z,72.93
2023-04-09T21:44:43.046Z,72.78
2023-04-09T21:47:12.177Z,72.03
2023-04-09T21:49:40.203Z,72.65
2023-04-09T21:52:14.357Z,72.42
2023-04-09T21:54:42.453Z,71.44
2023-04-09T21:57:09.887Z,71.51
2023-04-09T21:59:36.950Z,70.75
2023-04-09T22:02:04.776Z,71.33
2023-04-09T22:04:31.844Z,71.57
2023-04-09T22:06:58.857Z,72.42
2023-04-09T22:09:26.007Z,73.10
2023-04-09T22:11:53.629Z,72.07
2023-04-09T22:14:21.918Z,71.13
2023-04-09T22:16:48.836Z,72.27
2023-04-09T22:19:16.666Z,73.08
2023-04-09T22:21:43.568Z,73.02
2023-04-09T22:24:10.900Z,73.60
2023-04-09T22:26:39.140Z,73.54
2023-04-09T22:29:07.142Z,74.04
2023-04-09T22:31:34.057Z,74.19
2023-04-09T22:34:09.879Z,74.35
2023-04-09T22:36:44.429Z,74.43
2023-04-09T22:39:11.285Z,74.77
2023-04-09T22:41:38.640Z,74.93
2023-04-09T22:44:06.725Z,73.92
2023-04-09T22:46:34.831Z,73.12
2023-04-09T22:49:05.075Z,72.83
2023-04-09T22:51:34.737Z,72.76
2023-04-09T22:54:02.339Z,73.43
2023-04-09T22:56:31.770Z,74.36
2023-04-09T22:58:58.983Z,74.91
2023-04-09T23:01:26.543Z,75.41
2023-04-09T23:03:53.544Z,75.27
2023-04-09T23:06:21.861Z,75.40
2023-04-09T23:08:48.760Z,74.88
2023-04-09T23:11:15.800Z,75.10
2023-04-09T23:13:42.847Z,75.46
2023-04-09T23:16:10.230Z,75.14
2023-04-09T23:18:37.328Z,74.14
2023-04-09T23:21:10.715Z,74.13
2023-04-09T23:23:38.143Z,74.81
2023-04-09T23:26:05.467Z,75.47
2023-04-09T23:28:32.310Z,76.22
2023-04-09T23:30:59.429Z,76.65
2023-04-09T23:33:26.758Z,76.68
2023-04-09T23:35:54.102Z,76.81
2023-04-09T23:38:21.161Z,76.74
2023-04-09T23:40:48.932Z,76.52
2023-04-09T23:43:16.091Z,76.24
2023-04-09T23:45:43.857Z,76.33
2023-04-09T23:48:11.846Z,75.02
2023-04-09T23:50:41.749Z,73.46
2023-04-09T23:53:08.878Z,73.07
2023-04-09T23:55:40.827Z,73.92
2023-04-09T23:58:07.834Z,74.51
